sensor_id;sensor_type;location;lat;lon;timestamp;P1;durP1;ratioP1;P2;durP2;ratioP2
67500;SDS011;54349;52.528;19.760;2022-07-18T00:02:21;3.10;;;2.10;;
67500;SDS011;54349;52.528;19.760;2022-07-18T00:04:49;3.90;;;2.50;;
67500;SDS011;54349;52.528;19.760;2022-07-18T00:07:18;4.70;;;2.60;;
67500;SDS011;54349;52.528;19.760;2022-07-18T00:09:46;4.10;;;2.40;;
67500;SDS011;54349;52.528;19.760;2022-07-18T00:12:14;3.50;;;2.30;;
67500;SDS011;54349;52.528;19.760;2022-07-18T00:14:43;4.70;;;2.80;;
67500;SDS011;54349;52.528;19.760;2022-07-18T00:17:12;3.80;;;2.50;;
67500;SDS011;54349;52.528;19.760;2022-07-18T00:19:41;4.00;;;2.60;;
67500;SDS011;54349;52.528;19.760;2022-07-18T00:22:09;3.80;;;2.50;;
67500;SDS011;54349;52.528;19.760;2022-07-18T00:24:37;3.20;;;2.30;;
67500;SDS011;54349;52.528;19.760;2022-07-18T00:27:05;3.90;;;2.40;;
67500;SDS011;54349;52.528;19.760;2022-07-18T00:29:36;4.50;;;2.60;;
67500;SDS011;54349;52.528;19.760;2022-07-18T00:32:07;4.10;;;2.70;;
67500;SDS011;54349;52.528;19.760;2022-07-18T00:34:36;3.80;;;2.60;;
67500;SDS011;54349;52.528;19.760;2022-07-18T00:37:04;4.40;;;2.70;;
67500;SDS011;54349;52.528;19.760;2022-07-18T00:39:32;4.40;;;2.80;;
67500;SDS011;54349;52.528;19.760;2022-07-18T00:42:01;4.90;;;2.80;;
67500;SDS011;54349;52.528;19.760;2022-07-18T00:44:29;4.60;;;2.90;;
67500;SDS011;54349;52.528;19.760;2022-07-18T00:46:59;4.40;;;2.70;;
67500;SDS011;54349;52.528;19.760;2022-07-18T00:49:29;5.50;;;2.30;;
67500;SDS011;54349;52.528;19.760;2022-07-18T00:51:57;5.30;;;2.60;;
67500;SDS011;54349;52.528;19.760;2022-07-18T00:54:25;4.10;;;2.60;;
67500;SDS011;54349;52.528;19.760;2022-07-18T00:56:54;5.10;;;2.80;;
67500;SDS011;54349;52.528;19.760;2022-07-18T00:59:22;4.70;;;2.70;;
67500;SDS011;54349;52.528;19.760;2022-07-18T01:02:12;4.70;;;2.50;;
67500;SDS011;54349;52.528;19.760;2022-07-18T01:04:40;5.00;;;2.70;;
67500;SDS011;54349;52.528;19.760;2022-07-18T01:07:10;4.50;;;2.60;;
67500;SDS011;54349;52.528;19.760;2022-07-18T01:09:38;4.90;;;2.70;;
67500;SDS011;54349;52.528;19.760;2022-07-18T01:12:08;4.50;;;2.80;;
67500;SDS011;54349;52.528;19.760;2022-07-18T01:14:37;5.20;;;2.70;;
67500;SDS011;54349;52.528;19.760;2022-07-18T01:17:13;4.10;;;2.60;;
67500;SDS011;54349;52.528;19.760;2022-07-18T01:19:44;4.50;;;2.90;;
67500;SDS011;54349;52.528;19.760;2022-07-18T01:22:14;4.00;;;2.50;;
67500;SDS011;54349;52.528;19.760;2022-07-18T01:24:44;4.10;;;2.60;;
67500;SDS011;54349;52.528;19.760;2022-07-18T01:27:15;5.40;;;2.70;;
67500;SDS011;54349;52.528;19.760;2022-07-18T01:29:47;4.70;;;2.80;;
67500;SDS011;54349;52.528;19.760;2022-07-18T01:32:17;4.40;;;2.80;;
67500;SDS011;54349;52.528;19.760;2022-07-18T01:34:47;4.40;;;2.70;;
67500;SDS011;54349;52.528;19.760;2022-07-18T01:37:17;5.10;;;2.80;;
67500;SDS011;54349;52.528;19.760;2022-07-18T01:39:46;4.20;;;2.60;;
67500;SDS011;54349;52.528;19.760;2022-07-18T01:42:15;4.60;;;2.70;;
67500;SDS011;54349;52.528;19.760;2022-07-18T01:44:44;3.80;;;2.50;;
67500;SDS011;54349;52.528;19.760;2022-07-18T01:47:12;4.90;;;3.00;;
67500;SDS011;54349;52.528;19.760;2022-07-18T01:49:41;4.70;;;2.90;;
67500;SDS011;54349;52.528;19.760;2022-07-18T01:52:11;4.20;;;2.80;;
67500;SDS011;54349;52.528;19.760;2022-07-18T01:54:39;4.70;;;2.90;;
67500;SDS011;54349;52.528;19.760;2022-07-18T01:57:08;4.30;;;2.80;;
67500;SDS011;54349;52.528;19.760;2022-07-18T01:59:39;4.50;;;3.00;;
67500;SDS011;54349;52.528;19.760;2022-07-18T02:02:07;4.50;;;2.90;;
67500;SDS011;54349;52.528;19.760;2022-07-18T02:04:36;4.80;;;3.00;;
67500;SDS011;54349;52.528;19.760;2022-07-18T02:07:23;4.80;;;3.20;;
67500;SDS011;54349;52.528;19.760;2022-07-18T02:09:51;4.50;;;3.10;;
67500;SDS011;54349;52.528;19.760;2022-07-18T02:12:20;5.30;;;2.90;;
67500;SDS011;54349;52.528;19.760;2022-07-18T02:14:51;4.80;;;2.90;;
67500;SDS011;54349;52.528;19.760;2022-07-18T02:17:19;4.30;;;2.80;;
67500;SDS011;54349;52.528;19.760;2022-07-18T02:19:47;4.70;;;3.20;;
67500;SDS011;54349;52.528;19.760;2022-07-18T02:22:16;5.10;;;3.10;;
67500;SDS011;54349;52.528;19.760;2022-07-18T02:24:44;5.20;;;3.10;;
67500;SDS011;54349;52.528;19.760;2022-07-18T02:27:12;5.10;;;3.00;;
67500;SDS011;54349;52.528;19.760;2022-07-18T02:29:40;5.00;;;3.10;;
67500;SDS011;54349;52.528;19.760;2022-07-18T02:32:09;4.50;;;2.90;;
67500;SDS011;54349;52.528;19.760;2022-07-18T02:34:37;5.30;;;3.10;;
67500;SDS011;54349;52.528;19.760;2022-07-18T02:37:06;4.90;;;2.90;;
67500;SDS011;54349;52.528;19.760;2022-07-18T02:39:34;4.90;;;3.30;;
67500;SDS011;54349;52.528;19.760;2022-07-18T02:42:03;5.10;;;3.10;;
67500;SDS011;54349;52.528;19.760;2022-07-18T02:44:32;4.70;;;3.00;;
67500;SDS011;54349;52.528;19.760;2022-07-18T02:47:00;6.50;;;3.60;;
67500;SDS011;54349;52.528;19.760;2022-07-18T02:49:29;5.30;;;3.20;;
67500;SDS011;54349;52.528;19.760;2022-07-18T02:52:04;4.90;;;3.20;;
67500;SDS011;54349;52.528;19.760;2022-07-18T02:54:36;5.60;;;3.20;;
67500;SDS011;54349;52.528;19.760;2022-07-18T02:57:05;4.80;;;2.80;;
67500;SDS011;54349;52.528;19.760;2022-07-18T02:59:33;5.00;;;3.40;;
67500;SDS011;54349;52.528;19.760;2022-07-18T03:02:02;5.60;;;3.30;;
67500;SDS011;54349;52.528;19.760;2022-07-18T03:04:31;4.50;;;3.20;;
67500;SDS011;54349;52.528;19.760;2022-07-18T03:06:59;5.30;;;3.40;;
67500;SDS011;54349;52.528;19.760;2022-07-18T03:09:28;4.70;;;3.10;;
67500;SDS011;54349;52.528;19.760;2022-07-18T03:11:56;5.60;;;3.50;;
67500;SDS011;54349;52.528;19.760;2022-07-18T03:14:24;6.00;;;3.10;;
67500;SDS011;54349;52.528;19.760;2022-07-18T03:16:52;5.20;;;3.30;;
67500;SDS011;54349;52.528;19.760;2022-07-18T03:19:21;5.00;;;3.20;;
67500;SDS011;54349;52.528;19.760;2022-07-18T03:21:49;5.20;;;3.20;;
67500;SDS011;54349;52.528;19.760;2022-07-18T03:24:18;6.30;;;3.30;;
67500;SDS011;54349;52.528;19.760;2022-07-18T03:26:46;5.40;;;3.40;;
67500;SDS011;54349;52.528;19.760;2022-07-18T03:29:15;5.00;;;3.50;;
67500;SDS011;54349;52.528;19.760;2022-07-18T03:31:43;5.70;;;3.50;;
67500;SDS011;54349;52.528;19.760;2022-07-18T03:34:11;4.90;;;3.30;;
67500;SDS011;54349;52.528;19.760;2022-07-18T03:36:39;5.40;;;3.40;;
67500;SDS011;54349;52.528;19.760;2022-07-18T03:39:09;5.50;;;3.50;;
67500;SDS011;54349;52.528;19.760;2022-07-18T03:41:38;5.30;;;3.50;;
67500;SDS011;54349;52.528;19.760;2022-07-18T03:44:07;5.40;;;3.40;;
67500;SDS011;54349;52.528;19.760;2022-07-18T03:46:36;4.90;;;3.30;;
67500;SDS011;54349;52.528;19.760;2022-07-18T03:49:05;5.20;;;3.20;;
67500;SDS011;54349;52.528;19.760;2022-07-18T03:51:33;5.70;;;3.50;;
67500;SDS011;54349;52.528;19.760;2022-07-18T03:54:01;6.20;;;3.50;;
67500;SDS011;54349;52.528;19.760;2022-07-18T03:56:29;4.90;;;3.30;;
67500;SDS011;54349;52.528;19.760;2022-07-18T03:58:58;5.30;;;3.50;;
67500;SDS011;54349;52.528;19.760;2022-07-18T04:01:26;6.30;;;3.40;;
67500;SDS011;54349;52.528;19.760;2022-07-18T04:03:54;5.40;;;3.30;;
67500;SDS011;54349;52.528;19.760;2022-07-18T04:06:23;5.60;;;3.60;;
67500;SDS011;54349;52.528;19.760;2022-07-18T04:08:51;6.00;;;3.40;;
67500;SDS011;54349;52.528;19.760;2022-07-18T04:11:19;5.40;;;3.30;;
67500;SDS011;54349;52.528;19.760;2022-07-18T04:13:52;6.60;;;3.40;;
67500;SDS011;54349;52.528;19.760;2022-07-18T04:16:22;5.90;;;3.30;;
67500;SDS011;54349;52.528;19.760;2022-07-18T04:18:51;5.30;;;3.50;;
67500;SDS011;54349;52.528;19.760;2022-07-18T04:21:20;5.40;;;3.30;;
67500;SDS011;54349;52.528;19.760;2022-07-18T04:23:48;6.00;;;3.30;;
67500;SDS011;54349;52.528;19.760;2022-07-18T04:26:17;5.80;;;3.80;;
67500;SDS011;54349;52.528;19.760;2022-07-18T04:28:45;5.30;;;3.50;;
67500;SDS011;54349;52.528;19.760;2022-07-18T04:31:13;8.20;;;3.80;;
67500;SDS011;54349;52.528;19.760;2022-07-18T04:33:41;6.00;;;3.80;;
67500;SDS011;54349;52.528;19.760;2022-07-18T04:36:10;5.60;;;3.30;;
67500;SDS011;54349;52.528;19.760;2022-07-18T04:38:38;4.80;;;3.20;;
67500;SDS011;54349;52.528;19.760;2022-07-18T04:41:07;6.40;;;3.50;;
67500;SDS011;54349;52.528;19.760;2022-07-18T04:43:35;5.60;;;3.60;;
67500;SDS011;54349;52.528;19.760;2022-07-18T04:46:04;6.20;;;3.40;;
67500;SDS011;54349;52.528;19.760;2022-07-18T04:48:32;5.10;;;3.20;;
67500;SDS011;54349;52.528;19.760;2022-07-18T04:51:00;5.30;;;3.50;;
67500;SDS011;54349;52.528;19.760;2022-07-18T04:53:28;6.20;;;3.70;;
67500;SDS011;54349;52.528;19.760;2022-07-18T04:55:56;5.80;;;3.60;;
67500;SDS011;54349;52.528;19.760;2022-07-18T04:58:24;6.10;;;3.80;;
67500;SDS011;54349;52.528;19.760;2022-07-18T05:00:52;5.30;;;3.40;;
67500;SDS011;54349;52.528;19.760;2022-07-18T05:03:20;6.70;;;3.80;;
67500;SDS011;54349;52.528;19.760;2022-07-18T05:05:49;5.40;;;3.40;;
67500;SDS011;54349;52.528;19.760;2022-07-18T05:08:17;7.10;;;3.60;;
67500;SDS011;54349;52.528;19.760;2022-07-18T05:10:46;5.20;;;3.30;;
67500;SDS011;54349;52.528;19.760;2022-07-18T05:13:14;6.00;;;3.60;;
67500;SDS011;54349;52.528;19.760;2022-07-18T05:15:42;5.60;;;3.50;;
67500;SDS011;54349;52.528;19.760;2022-07-18T05:18:10;6.30;;;3.80;;
67500;SDS011;54349;52.528;19.760;2022-07-18T05:20:38;5.50;;;3.40;;
67500;SDS011;54349;52.528;19.760;2022-07-18T05:23:13;5.80;;;3.30;;
67500;SDS011;54349;52.528;19.760;2022-07-18T05:25:43;6.40;;;3.60;;
67500;SDS011;54349;52.528;19.760;2022-07-18T05:28:11;5.50;;;3.60;;
67500;SDS011;54349;52.528;19.760;2022-07-18T05:30:38;6.80;;;3.40;;
67500;SDS011;54349;52.528;19.760;2022-07-18T05:33:07;5.90;;;3.70;;
67500;SDS011;54349;52.528;19.760;2022-07-18T05:35:35;6.20;;;3.70;;
67500;SDS011;54349;52.528;19.760;2022-07-18T05:38:04;6.80;;;3.80;;
67500;SDS011;54349;52.528;19.760;2022-07-18T05:40:32;7.40;;;3.80;;
67500;SDS011;54349;52.528;19.760;2022-07-18T05:43:00;6.70;;;3.80;;
67500;SDS011;54349;52.528;19.760;2022-07-18T05:45:28;9.50;;;4.00;;
67500;SDS011;54349;52.528;19.760;2022-07-18T05:47:57;7.20;;;3.80;;
67500;SDS011;54349;52.528;19.760;2022-07-18T05:50:26;6.50;;;3.60;;
67500;SDS011;54349;52.528;19.760;2022-07-18T05:52:54;6.80;;;4.00;;
67500;SDS011;54349;52.528;19.760;2022-07-18T05:55:22;6.20;;;3.80;;
67500;SDS011;54349;52.528;19.760;2022-07-18T05:57:50;5.80;;;3.60;;
67500;SDS011;54349;52.528;19.760;2022-07-18T06:00:20;7.30;;;4.10;;
67500;SDS011;54349;52.528;19.760;2022-07-18T06:02:49;7.10;;;3.70;;
67500;SDS011;54349;52.528;19.760;2022-07-18T06:05:18;7.20;;;3.80;;
67500;SDS011;54349;52.528;19.760;2022-07-18T06:07:52;8.30;;;3.90;;
67500;SDS011;54349;52.528;19.760;2022-07-18T06:10:24;6.50;;;3.50;;
67500;SDS011;54349;52.528;19.760;2022-07-18T06:12:53;6.30;;;3.80;;
67500;SDS011;54349;52.528;19.760;2022-07-18T06:15:23;7.70;;;3.80;;
67500;SDS011;54349;52.528;19.760;2022-07-18T06:17:51;5.70;;;3.60;;
67500;SDS011;54349;52.528;19.760;2022-07-18T06:20:20;6.90;;;3.90;;
67500;SDS011;54349;52.528;19.760;2022-07-18T06:22:48;6.30;;;3.30;;
67500;SDS011;54349;52.528;19.760;2022-07-18T06:25:16;7.50;;;3.70;;
67500;SDS011;54349;52.528;19.760;2022-07-18T06:27:44;6.10;;;3.70;;
67500;SDS011;54349;52.528;19.760;2022-07-18T06:30:13;6.70;;;3.70;;
67500;SDS011;54349;52.528;19.760;2022-07-18T06:32:41;5.80;;;3.50;;
67500;SDS011;54349;52.528;19.760;2022-07-18T06:35:09;8.20;;;4.00;;
67500;SDS011;54349;52.528;19.760;2022-07-18T06:37:38;6.30;;;3.60;;
67500;SDS011;54349;52.528;19.760;2022-07-18T06:40:07;6.00;;;3.80;;
67500;SDS011;54349;52.528;19.760;2022-07-18T06:42:35;6.40;;;3.40;;
67500;SDS011;54349;52.528;19.760;2022-07-18T06:45:05;6.30;;;3.60;;
67500;SDS011;54349;52.528;19.760;2022-07-18T06:47:40;7.10;;;3.50;;
67500;SDS011;54349;52.528;19.760;2022-07-18T06:50:11;6.10;;;3.50;;
67500;SDS011;54349;52.528;19.760;2022-07-18T06:52:41;5.60;;;3.50;;
67500;SDS011;54349;52.528;19.760;2022-07-18T06:55:11;5.00;;;3.10;;
67500;SDS011;54349;52.528;19.760;2022-07-18T06:57:41;7.30;;;3.40;;
67500;SDS011;54349;52.528;19.760;2022-07-18T07:00:12;5.10;;;3.10;;
67500;SDS011;54349;52.528;19.760;2022-07-18T07:02:44;6.40;;;3.20;;
67500;SDS011;54349;52.528;19.760;2022-07-18T07:05:15;5.80;;;3.30;;
67500;SDS011;54349;52.528;19.760;2022-07-18T07:07:45;6.40;;;3.30;;
67500;SDS011;54349;52.528;19.760;2022-07-18T07:10:17;5.40;;;3.00;;
67500;SDS011;54349;52.528;19.760;2022-07-18T07:12:48;5.90;;;3.00;;
67500;SDS011;54349;52.528;19.760;2022-07-18T07:15:22;5.40;;;3.00;;
67500;SDS011;54349;52.528;19.760;2022-07-18T07:17:52;5.00;;;3.00;;
67500;SDS011;54349;52.528;19.760;2022-07-18T07:20:21;7.50;;;3.20;;
67500;SDS011;54349;52.528;19.760;2022-07-18T07:22:52;5.40;;;2.90;;
67500;SDS011;54349;52.528;19.760;2022-07-18T07:25:24;5.80;;;3.40;;
67500;SDS011;54349;52.528;19.760;2022-07-18T07:27:54;5.90;;;3.00;;
67500;SDS011;54349;52.528;19.760;2022-07-18T07:30:23;5.30;;;2.90;;
67500;SDS011;54349;52.528;19.760;2022-07-18T07:32:51;4.90;;;2.70;;
67500;SDS011;54349;52.528;19.760;2022-07-18T07:35:20;6.00;;;3.10;;
67500;SDS011;54349;52.528;19.760;2022-07-18T07:37:52;6.10;;;3.00;;
67500;SDS011;54349;52.528;19.760;2022-07-18T07:40:25;6.20;;;3.00;;
67500;SDS011;54349;52.528;19.760;2022-07-18T07:43:09;6.30;;;3.00;;
67500;SDS011;54349;52.528;19.760;2022-07-18T07:45:39;4.70;;;2.90;;
67500;SDS011;54349;52.528;19.760;2022-07-18T07:48:08;6.70;;;3.10;;
67500;SDS011;54349;52.528;19.760;2022-07-18T07:50:37;5.00;;;3.00;;
67500;SDS011;54349;52.528;19.760;2022-07-18T07:53:05;5.20;;;3.00;;
67500;SDS011;54349;52.528;19.760;2022-07-18T07:55:33;5.10;;;2.90;;
67500;SDS011;54349;52.528;19.760;2022-07-18T07:58:01;5.70;;;3.00;;
67500;SDS011;54349;52.528;19.760;2022-07-18T08:00:33;4.90;;;2.90;;
67500;SDS011;54349;52.528;19.760;2022-07-18T08:03:04;5.40;;;2.80;;
67500;SDS011;54349;52.528;19.760;2022-07-18T08:05:38;4.90;;;2.90;;
67500;SDS011;54349;52.528;19.760;2022-07-18T08:08:12;5.00;;;2.70;;
67500;SDS011;54349;52.528;19.760;2022-07-18T08:10:42;5.40;;;3.10;;
67500;SDS011;54349;52.528;19.760;2022-07-18T08:13:11;5.70;;;2.70;;
67500;SDS011;54349;52.528;19.760;2022-07-18T08:15:40;5.00;;;2.90;;
67500;SDS011;54349;52.528;19.760;2022-07-18T08:18:08;4.40;;;2.70;;
67500;SDS011;54349;52.528;19.760;2022-07-18T08:20:37;4.80;;;2.80;;
67500;SDS011;54349;52.528;19.760;2022-07-18T08:23:07;5.00;;;2.80;;
67500;SDS011;54349;52.528;19.760;2022-07-18T08:25:40;6.00;;;2.80;;
67500;SDS011;54349;52.528;19.760;2022-07-18T08:28:11;4.60;;;2.80;;
67500;SDS011;54349;52.528;19.760;2022-07-18T08:30:40;4.70;;;2.80;;
67500;SDS011;54349;52.528;19.760;2022-07-18T08:33:08;4.50;;;2.90;;
67500;SDS011;54349;52.528;19.760;2022-07-18T08:35:36;5.90;;;2.90;;
67500;SDS011;54349;52.528;19.760;2022-07-18T08:38:05;5.20;;;2.60;;
67500;SDS011;54349;52.528;19.760;2022-07-18T08:40:33;4.40;;;2.50;;
67500;SDS011;54349;52.528;19.760;2022-07-18T08:43:03;4.60;;;2.60;;
67500;SDS011;54349;52.528;19.760;2022-07-18T08:45:54;4.10;;;2.70;;
67500;SDS011;54349;52.528;19.760;2022-07-18T08:48:24;4.20;;;2.70;;
67500;SDS011;54349;52.528;19.760;2022-07-18T08:50:53;4.70;;;2.60;;
67500;SDS011;54349;52.528;19.760;2022-07-18T08:53:21;4.20;;;2.40;;
67500;SDS011;54349;52.528;19.760;2022-07-18T08:55:49;4.80;;;2.70;;
67500;SDS011;54349;52.528;19.760;2022-07-18T08:58:17;5.30;;;2.50;;
67500;SDS011;54349;52.528;19.760;2022-07-18T09:01:06;4.70;;;2.60;;
67500;SDS011;54349;52.528;19.760;2022-07-18T09:03:35;4.90;;;2.60;;
67500;SDS011;54349;52.528;19.760;2022-07-18T09:06:12;4.10;;;2.70;;
67500;SDS011;54349;52.528;19.760;2022-07-18T09:09:01;4.70;;;2.70;;
67500;SDS011;54349;52.528;19.760;2022-07-18T09:11:30;4.10;;;2.60;;
67500;SDS011;54349;52.528;19.760;2022-07-18T09:17:08;5.50;;;2.70;;
67500;SDS011;54349;52.528;19.760;2022-07-18T09:22:31;4.20;;;2.40;;
67500;SDS011;54349;52.528;19.760;2022-07-18T09:27:49;4.10;;;2.40;;
67500;SDS011;54349;52.528;19.760;2022-07-18T09:30:23;4.40;;;2.60;;
67500;SDS011;54349;52.528;19.760;2022-07-18T09:35:53;3.90;;;2.30;;
67500;SDS011;54349;52.528;19.760;2022-07-18T09:38:22;5.00;;;2.60;;
67500;SDS011;54349;52.528;19.760;2022-07-18T09:40:56;4.10;;;2.60;;
67500;SDS011;54349;52.528;19.760;2022-07-18T09:43:25;3.90;;;2.40;;
67500;SDS011;54349;52.528;19.760;2022-07-18T09:45:55;4.20;;;2.50;;
67500;SDS011;54349;52.528;19.760;2022-07-18T09:48:25;4.50;;;2.60;;
67500;SDS011;54349;52.528;19.760;2022-07-18T09:50:59;3.60;;;2.40;;
67500;SDS011;54349;52.528;19.760;2022-07-18T09:56:09;4.30;;;2.50;;
67500;SDS011;54349;52.528;19.760;2022-07-18T09:58:51;3.80;;;2.50;;
67500;SDS011;54349;52.528;19.760;2022-07-18T10:01:22;4.70;;;2.50;;
67500;SDS011;54349;52.528;19.760;2022-07-18T10:03:52;4.90;;;2.50;;
67500;SDS011;54349;52.528;19.760;2022-07-18T10:06:20;4.40;;;2.30;;
67500;SDS011;54349;52.528;19.760;2022-07-18T10:08:50;3.50;;;2.20;;
67500;SDS011;54349;52.528;19.760;2022-07-18T10:11:23;3.90;;;2.30;;
67500;SDS011;54349;52.528;19.760;2022-07-18T10:13:52;3.60;;;2.40;;
67500;SDS011;54349;52.528;19.760;2022-07-18T10:16:22;4.00;;;2.30;;
67500;SDS011;54349;52.528;19.760;2022-07-18T10:18:50;4.40;;;2.30;;
67500;SDS011;54349;52.528;19.760;2022-07-18T10:21:20;4.20;;;2.40;;
67500;SDS011;54349;52.528;19.760;2022-07-18T10:23:49;3.80;;;2.30;;
67500;SDS011;54349;52.528;19.760;2022-07-18T10:26:23;3.60;;;2.50;;
67500;SDS011;54349;52.528;19.760;2022-07-18T10:31:27;3.70;;;2.30;;
67500;SDS011;54349;52.528;19.760;2022-07-18T10:39:36;4.80;;;2.30;;
67500;SDS011;54349;52.528;19.760;2022-07-18T10:44:37;3.80;;;2.40;;
67500;SDS011;54349;52.528;19.760;2022-07-18T10:47:17;3.60;;;2.30;;
67500;SDS011;54349;52.528;19.760;2022-07-18T11:00:28;3.80;;;2.30;;
67500;SDS011;54349;52.528;19.760;2022-07-18T11:03:05;4.00;;;2.20;;
67500;SDS011;54349;52.528;19.760;2022-07-18T11:05:45;3.80;;;2.30;;
67500;SDS011;54349;52.528;19.760;2022-07-18T11:08:20;4.00;;;2.50;;
67500;SDS011;54349;52.528;19.760;2022-07-18T11:13:37;4.10;;;2.50;;
67500;SDS011;54349;52.528;19.760;2022-07-18T11:21:18;4.30;;;2.30;;
67500;SDS011;54349;52.528;19.760;2022-07-18T11:26:23;3.60;;;2.00;;
67500;SDS011;54349;52.528;19.760;2022-07-18T11:28:58;2.70;;;1.90;;
67500;SDS011;54349;52.528;19.760;2022-07-18T11:31:32;5.00;;;2.50;;
67500;SDS011;54349;52.528;19.760;2022-07-18T11:34:21;3.60;;;2.10;;
67500;SDS011;54349;52.528;19.760;2022-07-18T11:37:07;4.40;;;2.20;;
67500;SDS011;54349;52.528;19.760;2022-07-18T11:39:35;3.40;;;2.20;;
67500;SDS011;54349;52.528;19.760;2022-07-18T11:42:04;3.20;;;2.20;;
67500;SDS011;54349;52.528;19.760;2022-07-18T11:44:32;5.00;;;2.40;;
67500;SDS011;54349;52.528;19.760;2022-07-18T11:47:06;6.10;;;2.20;;
67500;SDS011;54349;52.528;19.760;2022-07-18T11:49:36;3.10;;;2.00;;
67500;SDS011;54349;52.528;19.760;2022-07-18T11:52:06;3.20;;;2.20;;
67500;SDS011;54349;52.528;19.760;2022-07-18T11:54:35;4.00;;;2.00;;
67500;SDS011;54349;52.528;19.760;2022-07-18T11:57:03;3.30;;;2.20;;
67500;SDS011;54349;52.528;19.760;2022-07-18T11:59:39;3.00;;;2.10;;
67500;SDS011;54349;52.528;19.760;2022-07-18T12:02:09;3.10;;;2.00;;
67500;SDS011;54349;52.528;19.760;2022-07-18T12:04:38;3.60;;;2.10;;
67500;SDS011;54349;52.528;19.760;2022-07-18T12:07:24;2.90;;;1.80;;
67500;SDS011;54349;52.528;19.760;2022-07-18T12:09:53;3.70;;;2.30;;
67500;SDS011;54349;52.528;19.760;2022-07-18T12:12:22;3.00;;;1.90;;
67500;SDS011;54349;52.528;19.760;2022-07-18T12:14:56;2.80;;;1.90;;
67500;SDS011;54349;52.528;19.760;2022-07-18T12:17:27;3.30;;;2.10;;
67500;SDS011;54349;52.528;19.760;2022-07-18T12:20:14;4.00;;;2.40;;
67500;SDS011;54349;52.528;19.760;2022-07-18T12:23:09;3.20;;;2.10;;
67500;SDS011;54349;52.528;19.760;2022-07-18T12:25:43;3.70;;;2.10;;
67500;SDS011;54349;52.528;19.760;2022-07-18T12:28:16;3.30;;;2.00;;
67500;SDS011;54349;52.528;19.760;2022-07-18T12:30:45;3.20;;;2.00;;
67500;SDS011;54349;52.528;19.760;2022-07-18T12:33:14;3.30;;;2.20;;
67500;SDS011;54349;52.528;19.760;2022-07-18T12:35:43;3.10;;;2.00;;
67500;SDS011;54349;52.528;19.760;2022-07-18T12:38:13;2.90;;;2.00;;
67500;SDS011;54349;52.528;19.760;2022-07-18T12:45:55;3.40;;;2.20;;
67500;SDS011;54349;52.528;19.760;2022-07-18T12:48:27;3.30;;;1.80;;
67500;SDS011;54349;52.528;19.760;2022-07-18T12:51:03;3.30;;;2.10;;
67500;SDS011;54349;52.528;19.760;2022-07-18T12:53:41;3.60;;;2.00;;
67500;SDS011;54349;52.528;19.760;2022-07-18T12:56:11;4.20;;;2.20;;
67500;SDS011;54349;52.528;19.760;2022-07-18T12:58:39;3.80;;;2.00;;
67500;SDS011;54349;52.528;19.760;2022-07-18T13:01:08;3.00;;;1.80;;
67500;SDS011;54349;52.528;19.760;2022-07-18T13:03:36;3.80;;;2.10;;
67500;SDS011;54349;52.528;19.760;2022-07-18T13:06:04;3.70;;;2.20;;
67500;SDS011;54349;52.528;19.760;2022-07-18T13:08:33;3.50;;;2.00;;
67500;SDS011;54349;52.528;19.760;2022-07-18T13:11:01;2.40;;;1.80;;
67500;SDS011;54349;52.528;19.760;2022-07-18T13:13:29;2.60;;;1.90;;
67500;SDS011;54349;52.528;19.760;2022-07-18T13:15:58;3.20;;;2.00;;
67500;SDS011;54349;52.528;19.760;2022-07-18T13:18:26;3.70;;;2.10;;
67500;SDS011;54349;52.528;19.760;2022-07-18T13:20:54;3.80;;;2.10;;
67500;SDS011;54349;52.528;19.760;2022-07-18T13:23:23;3.70;;;2.00;;
67500;SDS011;54349;52.528;19.760;2022-07-18T13:25:51;2.90;;;2.00;;
67500;SDS011;54349;52.528;19.760;2022-07-18T13:28:19;2.50;;;1.80;;
67500;SDS011;54349;52.528;19.760;2022-07-18T13:30:47;3.60;;;1.90;;
67500;SDS011;54349;52.528;19.760;2022-07-18T13:33:16;2.80;;;1.90;;
67500;SDS011;54349;52.528;19.760;2022-07-18T13:35:43;4.20;;;2.20;;
67500;SDS011;54349;52.528;19.760;2022-07-18T13:38:11;3.00;;;2.10;;
67500;SDS011;54349;52.528;19.760;2022-07-18T13:40:41;2.90;;;2.00;;
67500;SDS011;54349;52.528;19.760;2022-07-18T13:43:09;3.10;;;2.00;;
67500;SDS011;54349;52.528;19.760;2022-07-18T13:45:39;3.50;;;2.20;;
67500;SDS011;54349;52.528;19.760;2022-07-18T13:48:07;2.80;;;2.00;;
67500;SDS011;54349;52.528;19.760;2022-07-18T13:50:36;3.70;;;2.10;;
67500;SDS011;54349;52.528;19.760;2022-07-18T13:53:04;3.30;;;2.20;;
67500;SDS011;54349;52.528;19.760;2022-07-18T13:55:32;3.30;;;1.90;;
67500;SDS011;54349;52.528;19.760;2022-07-18T13:58:01;3.70;;;2.10;;
67500;SDS011;54349;52.528;19.760;2022-07-18T14:00:34;3.10;;;2.00;;
67500;SDS011;54349;52.528;19.760;2022-07-18T14:03:02;3.20;;;1.80;;
67500;SDS011;54349;52.528;19.760;2022-07-18T14:05:32;4.00;;;2.00;;
67500;SDS011;54349;52.528;19.760;2022-07-18T14:08:00;3.00;;;1.90;;
67500;SDS011;54349;52.528;19.760;2022-07-18T14:10:28;3.80;;;1.90;;
67500;SDS011;54349;52.528;19.760;2022-07-18T14:12:56;3.20;;;2.00;;
67500;SDS011;54349;52.528;19.760;2022-07-18T14:15:24;2.90;;;1.90;;
67500;SDS011;54349;52.528;19.760;2022-07-18T14:17:53;3.40;;;2.10;;
67500;SDS011;54349;52.528;19.760;2022-07-18T14:20:22;3.70;;;2.00;;
67500;SDS011;54349;52.528;19.760;2022-07-18T14:22:50;2.80;;;1.90;;
67500;SDS011;54349;52.528;19.760;2022-07-18T14:25:18;3.00;;;1.90;;
67500;SDS011;54349;52.528;19.760;2022-07-18T14:27:46;3.40;;;1.70;;
67500;SDS011;54349;52.528;19.760;2022-07-18T14:30:15;3.30;;;1.90;;
67500;SDS011;54349;52.528;19.760;2022-07-18T14:32:45;3.00;;;2.10;;
67500;SDS011;54349;52.528;19.760;2022-07-18T14:35:13;3.10;;;2.00;;
67500;SDS011;54349;52.528;19.760;2022-07-18T14:37:41;4.60;;;2.00;;
67500;SDS011;54349;52.528;19.760;2022-07-18T14:40:10;3.70;;;1.90;;
67500;SDS011;54349;52.528;19.760;2022-07-18T14:42:39;2.80;;;1.80;;
67500;SDS011;54349;52.528;19.760;2022-07-18T14:45:09;3.30;;;2.10;;
67500;SDS011;54349;52.528;19.760;2022-07-18T14:47:37;3.60;;;1.90;;
67500;SDS011;54349;52.528;19.760;2022-07-18T14:50:06;4.30;;;2.00;;
67500;SDS011;54349;52.528;19.760;2022-07-18T14:52:39;2.20;;;1.80;;
67500;SDS011;54349;52.528;19.760;2022-07-18T14:55:09;2.30;;;1.80;;
67500;SDS011;54349;52.528;19.760;2022-07-18T14:57:38;3.40;;;1.80;;
67500;SDS011;54349;52.528;19.760;2022-07-18T15:00:08;3.50;;;2.00;;
67500;SDS011;54349;52.528;19.760;2022-07-18T15:02:38;2.30;;;1.80;;
67500;SDS011;54349;52.528;19.760;2022-07-18T15:05:08;3.00;;;1.80;;
67500;SDS011;54349;52.528;19.760;2022-07-18T15:07:37;2.40;;;1.70;;
67500;SDS011;54349;52.528;19.760;2022-07-18T15:10:07;3.10;;;1.90;;
67500;SDS011;54349;52.528;19.760;2022-07-18T15:12:35;3.70;;;2.00;;
67500;SDS011;54349;52.528;19.760;2022-07-18T15:15:06;2.70;;;1.80;;
67500;SDS011;54349;52.528;19.760;2022-07-18T15:17:35;3.30;;;2.00;;
67500;SDS011;54349;52.528;19.760;2022-07-18T15:20:05;2.20;;;1.80;;
67500;SDS011;54349;52.528;19.760;2022-07-18T15:22:35;3.00;;;1.90;;
67500;SDS011;54349;52.528;19.760;2022-07-18T15:25:04;2.90;;;1.90;;
67500;SDS011;54349;52.528;19.760;2022-07-18T15:27:33;2.60;;;1.70;;
67500;SDS011;54349;52.528;19.760;2022-07-18T15:30:02;3.30;;;1.80;;
67500;SDS011;54349;52.528;19.760;2022-07-18T15:32:52;3.10;;;1.90;;
67500;SDS011;54349;52.528;19.760;2022-07-18T15:35:20;3.90;;;1.90;;
67500;SDS011;54349;52.528;19.760;2022-07-18T15:37:48;1.90;;;1.60;;
67500;SDS011;54349;52.528;19.760;2022-07-18T15:40:23;2.90;;;1.90;;
67500;SDS011;54349;52.528;19.760;2022-07-18T15:42:51;2.80;;;1.60;;